createdAt,value
2023-02-04T07:40:38.028Z,576.00
2023-02-04T07:41:12.818Z,600.00
2023-02-04T07:42:12.787Z,668.00
2023-02-04T07:43:12.769Z,732.00
2023-02-04T07:44:12.762Z,780.00
2023-02-04T07:45:12.751Z,832.00
2023-02-04T07:46:12.763Z,928.00
2023-02-04T07:47:12.759Z,1116.00
2023-02-04T07:48:12.713Z,1208.00
2023-02-04T07:49:12.710Z,1216.00
2023-02-04T07:50:12.680Z,1272.00
2023-02-04T07:51:12.674Z,1312.00
2023-02-04T07:52:12.681Z,1344.00
2023-02-04T07:53:12.679Z,1380.00
2023-02-04T07:54:12.646Z,1416.00
2023-02-04T07:55:12.647Z,1360.00
2023-02-04T07:56:12.638Z,1336.00
2023-02-04T07:57:12.627Z,1296.00
2023-02-04T07:58:12.590Z,1352.00
2023-02-04T07:59:12.577Z,1404.00
2023-02-04T08:00:12.578Z,1336.00
2023-02-04T08:01:12.581Z,1228.00
2023-02-04T08:02:12.544Z,1164.00
2023-02-04T08:03:12.572Z,1124.00
2023-02-04T08:04:12.514Z,1068.00
2023-02-04T08:05:12.521Z,1156.00
2023-02-04T08:06:12.506Z,1248.00
2023-02-04T08:07:12.495Z,1224.00
2023-02-04T08:08:12.498Z,1164.00
2023-02-04T08:09:12.458Z,1136.00
2023-02-04T08:10:12.461Z,1192.00
2023-02-04T08:11:12.449Z,1272.00
2023-02-04T08:12:12.449Z,1308.00
2023-02-04T08:13:12.409Z,1244.00
2023-02-04T08:14:12.430Z,1164.00
2023-02-04T08:15:12.386Z,1128.00
2023-02-04T08:16:12.408Z,1104.00
2023-02-04T08:17:12.368Z,1096.00
2023-02-04T08:18:12.359Z,1132.00
2023-02-04T08:19:12.371Z,1224.00
2023-02-04T08:20:12.334Z,1440.00
2023-02-04T08:21:12.331Z,1548.00
2023-02-04T08:22:12.340Z,1600.00
2023-02-04T08:23:12.294Z,1604.00
2023-02-04T08:24:12.299Z,1696.00
2023-02-04T08:25:12.289Z,1768.00
2023-02-04T08:26:12.280Z,1900.00
2023-02-04T08:27:12.264Z,2088.00
2023-02-04T08:28:12.419Z,2168.00
2023-02-04T08:29:12.254Z,2100.00
2023-02-04T08:30:12.243Z,2120.00
2023-02-04T08:31:12.352Z,2136.00
2023-02-04T08:32:12.214Z,2140.00
2023-02-04T08:33:12.193Z,2264.00
2023-02-04T08:34:12.171Z,2464.00
2023-02-04T08:35:12.201Z,2576.00
2023-02-04T08:36:12.162Z,2796.00
2023-02-04T08:37:12.135Z,2776.00
2023-02-04T08:38:12.128Z,2676.00
2023-02-04T08:39:12.114Z,2624.00
2023-02-04T08:40:12.130Z,2536.00
2023-02-04T08:41:12.109Z,2500.00
2023-02-04T08:42:12.080Z,2360.00
2023-02-04T08:43:12.063Z,2236.00
2023-02-04T08:44:12.090Z,2288.00
2023-02-04T08:45:12.055Z,2300.00
2023-02-04T08:46:12.142Z,2288.00
2023-02-04T08:47:12.030Z,2344.00
2023-02-04T08:48:12.036Z,2348.00
2023-02-04T08:49:12.034Z,2252.00
2023-02-04T08:50:12.026Z,2372.00
2023-02-04T08:51:12.004Z,2548.00
2023-02-04T08:52:11.999Z,2648.00
2023-02-04T08:53:11.986Z,2680.00
2023-02-04T08:54:11.964Z,2656.00
2023-02-04T08:55:11.961Z,2836.00
2023-02-04T08:56:11.943Z,2984.00
2023-02-04T08:57:11.944Z,3208.00
2023-02-04T08:58:11.935Z,3060.00
2023-02-04T08:59:11.914Z,2856.00
2023-02-04T09:00:11.944Z,2816.00
2023-02-04T09:01:11.937Z,2952.00
2023-02-04T09:02:11.937Z,3032.00
2023-02-04T09:03:11.878Z,2892.00
2023-02-04T09:04:11.858Z,2896.00
2023-02-04T09:05:11.865Z,2944.00
2023-02-04T09:06:11.838Z,3096.00
2023-02-04T09:07:11.835Z,3336.00
2023-02-04T09:08:11.840Z,3296.00
2023-02-04T09:09:11.814Z,3428.00
2023-02-04T09:10:11.845Z,3472.00
2023-02-04T09:11:11.778Z,3328.00
2023-02-04T09:12:11.789Z,3348.00
2023-02-04T09:13:11.789Z,3264.00
2023-02-04T09:14:11.753Z,2984.00
2023-02-04T09:15:11.734Z,2880.00
2023-02-04T09:16:11.791Z,3164.00
2023-02-04T09:17:11.725Z,3356.00
2023-02-04T09:18:11.719Z,3300.00
2023-02-04T09:19:11.687Z,3216.00
2023-02-04T09:20:11.726Z,3520.00
2023-02-04T09:21:11.666Z,3800.00
2023-02-04T09:22:11.674Z,3748.00
2023-02-04T09:23:11.657Z,3680.00
2023-02-04T09:24:11.650Z,3796.00
2023-02-04T09:25:11.625Z,3776.00
2023-02-04T09:26:11.627Z,3608.00
2023-02-04T09:27:11.632Z,3568.00
2023-02-04T09:28:11.762Z,3668.00
2023-02-04T09:29:11.582Z,3684.00
2023-02-04T09:30:11.592Z,3640.00
2023-02-04T09:31:11.762Z,3764.00
2023-02-04T09:32:11.674Z,3888.00
2023-02-04T09:33:11.551Z,4044.00
2023-02-04T09:34:11.560Z,4084.00
2023-02-04T09:35:11.511Z,4004.00
2023-02-04T09:36:11.539Z,4080.00
2023-02-04T09:37:11.497Z,4152.00
2023-02-04T09:38:11.496Z,4248.00
2023-02-04T09:39:11.491Z,4312.00
2023-02-04T09:40:11.645Z,4128.00
2023-02-04T09:41:11.456Z,3924.00
2023-02-04T09:42:11.472Z,3888.00
2023-02-04T09:43:11.435Z,4024.00
2023-02-04T09:44:11.446Z,3920.00
2023-02-04T09:45:11.413Z,3880.00
2023-02-04T09:46:11.492Z,3916.00
2023-02-04T09:47:11.386Z,4284.00
2023-02-04T09:48:11.441Z,4056.00
2023-02-04T09:49:11.353Z,4188.00
2023-02-04T09:50:11.381Z,4380.00
2023-02-04T09:51:11.381Z,4380.00
2023-02-04T09:52:11.328Z,4320.00
2023-02-04T09:53:11.308Z,4496.00
2023-02-04T09:54:11.336Z,4488.00
2023-02-04T09:55:11.307Z,4400.00
2023-02-04T09:56:11.285Z,4360.00
2023-02-04T09:57:11.253Z,4292.00
2023-02-04T09:58:11.245Z,4340.00
2023-02-04T09:59:11.240Z,4204.00
2023-02-04T10:00:11.247Z,4252.00
2023-02-04T10:01:11.337Z,4424.00
2023-02-04T10:02:11.194Z,4468.00
2023-02-04T10:03:11.179Z,4352.00
2023-02-04T10:04:11.204Z,4308.00
2023-02-04T10:05:11.175Z,4496.00
2023-02-04T10:06:11.147Z,4516.00
2023-02-04T10:07:11.144Z,4332.00
2023-02-04T10:08:11.120Z,4252.00
2023-02-04T10:09:11.129Z,4136.00
2023-02-04T10:10:11.126Z,4012.00
2023-02-04T10:11:11.083Z,3940.00
2023-02-04T10:12:11.085Z,3976.00
2023-02-04T10:13:11.072Z,3964.00
2023-02-04T10:14:11.049Z,3940.00
2023-02-04T10:15:11.067Z,3696.00
2023-02-04T10:16:11.098Z,3616.00
2023-02-04T10:17:11.024Z,3312.00
2023-02-04T10:18:11.003Z,3048.00
2023-02-04T10:19:11.004Z,2800.00
2023-02-04T10:20:11.090Z,2480.00
2023-02-04T10:21:10.975Z,2356.00
2023-02-04T10:22:10.976Z,2592.00
2023-02-04T10:23:12.704Z,3204.00
2023-02-04T10:24:10.948Z,3508.00
2023-02-04T10:25:10.928Z,3292.00
2023-02-04T10:26:10.922Z,3268.00
2023-02-04T10:27:10.922Z,3424.00
2023-02-04T10:28:10.935Z,3656.00
2023-02-04T10:29:10.875Z,3596.00
2023-02-04T10:30:10.879Z,3552.00
2023-02-04T10:31:10.976Z,3856.00
2023-02-04T10:32:10.879Z,4092.00
2023-02-04T10:33:10.831Z,3956.00
2023-02-04T10:34:10.836Z,3836.00
2023-02-04T10:35:10.811Z,3708.00
2023-02-04T10:36:10.824Z,3344.00
2023-02-04T10:37:10.814Z,2760.00
2023-02-04T10:38:10.793Z,2332.00
2023-02-04T10:39:10.788Z,1980.00
2023-02-04T10:40:10.770Z,2028.00
2023-02-04T10:41:10.759Z,2032.00
2023-02-04T10:42:10.756Z,2300.00
2023-02-04T10:43:10.722Z,2756.00
2023-02-04T10:44:10.736Z,3124.00
2023-02-04T10:45:10.711Z,3096.00
2023-02-04T10:46:10.709Z,2740.00
2023-02-04T10:47:10.692Z,2448.00
2023-02-04T10:48:10.702Z,2292.00
2023-02-04T10:49:11.485Z,2036.00
2023-02-04T10:50:10.646Z,1948.00
2023-02-04T10:51:10.645Z,2020.00
2023-02-04T10:52:10.658Z,2040.00
2023-02-04T10:53:10.653Z,1892.00
2023-02-04T10:54:10.635Z,1628.00
2023-02-04T10:55:10.585Z,1396.00
2023-02-04T10:56:10.596Z,1336.00
2023-02-04T10:57:10.578Z,1392.00
2023-02-04T10:58:10.569Z,1564.00
2023-02-04T10:59:10.578Z,1844.00
2023-02-04T11:00:10.544Z,2244.00
2023-02-04T11:01:10.570Z,2720.00
2023-02-04T11:02:10.528Z,2836.00
2023-02-04T11:03:10.641Z,2728.00
2023-02-04T11:04:10.525Z,2592.00
2023-02-04T11:05:10.487Z,2380.00
2023-02-04T11:06:10.482Z,2288.00
2023-02-04T11:07:10.450Z,2312.00
2023-02-04T11:08:10.481Z,2292.00
2023-02-04T11:09:10.450Z,2388.00
2023-02-04T11:10:10.418Z,2300.00
2023-02-04T11:11:10.424Z,2356.00
2023-02-04T11:12:10.397Z,2604.00
2023-02-04T11:13:10.399Z,2732.00
2023-02-04T11:14:10.425Z,2720.00
2023-02-04T11:15:10.361Z,2608.00
2023-02-04T11:16:10.481Z,2360.00
2023-02-04T11:17:10.355Z,2212.00
2023-02-04T11:18:10.360Z,2220.00
2023-02-04T11:19:10.326Z,2264.00
2023-02-04T11:20:10.305Z,2340.00
2023-02-04T11:21:10.288Z,2352.00
2023-02-04T11:22:10.385Z,2400.00
2023-02-04T11:23:10.283Z,2524.00
2023-02-04T11:24:10.321Z,2736.00
2023-02-04T11:25:10.247Z,2940.00
2023-02-04T11:26:10.265Z,2964.00
2023-02-04T11:27:10.223Z,2624.00
2023-02-04T11:28:10.263Z,2312.00
2023-02-04T11:29:10.231Z,2252.00
2023-02-04T11:30:10.205Z,2352.00
2023-02-04T11:31:10.314Z,2392.00
2023-02-04T11:32:10.197Z,2388.00
2023-02-04T11:33:10.165Z,2412.00
2023-02-04T11:34:10.177Z,2532.00
2023-02-04T11:35:10.127Z,2576.00
2023-02-04T11:36:10.120Z,2608.00
2023-02-04T11:37:10.123Z,2532.00
2023-02-04T11:38:10.102Z,2412.00
2023-02-04T11:39:10.117Z,2444.00
2023-02-04T11:40:10.094Z,2732.00
2023-02-04T11:41:10.058Z,3204.00
2023-02-04T11:42:10.053Z,3624.00
2023-02-04T11:43:10.037Z,3916.00
2023-02-04T11:44:10.043Z,4168.00
2023-02-04T11:45:10.028Z,4296.00
2023-02-04T11:46:10.182Z,4136.00
2023-02-04T11:47:10.000Z,3932.00
2023-02-04T11:48:09.994Z,4008.00
2023-02-04T11:49:09.998Z,4072.00
2023-02-04T11:50:09.997Z,4160.00
2023-02-04T11:51:09.942Z,4220.00
2023-02-04T11:52:09.947Z,4428.00
2023-02-04T11:53:09.951Z,4640.00
2023-02-04T11:54:09.948Z,4740.00
2023-02-04T11:55:09.912Z,4680.00
2023-02-04T11:56:09.926Z,4620.00
2023-02-04T11:57:09.888Z,4604.00
2023-02-04T11:58:09.874Z,4464.00
2023-02-04T11:59:09.887Z,4188.00
2023-02-04T12:00:09.863Z,3896.00
2023-02-04T12:01:09.830Z,3520.00
2023-02-04T12:02:09.823Z,3396.00
2023-02-04T12:03:09.810Z,3360.00
2023-02-04T12:04:09.857Z,3344.00
2023-02-04T12:05:09.824Z,3196.00
2023-02-04T12:06:09.791Z,3268.00
2023-02-04T12:07:09.763Z,3376.00
2023-02-04T12:08:11.707Z,3320.00
2023-02-04T12:09:09.758Z,3064.00
2023-02-04T12:10:09.749Z,2760.00
2023-02-04T12:11:09.731Z,2560.00
2023-02-04T12:12:09.749Z,2492.00
2023-02-04T12:13:09.695Z,2508.00
2023-02-04T12:14:09.688Z,2516.00
2023-02-04T12:15:09.699Z,2508.00
2023-02-04T12:16:09.769Z,2384.00
2023-02-04T12:17:09.648Z,2348.00
2023-02-04T12:18:09.657Z,2504.00
2023-02-04T12:19:09.644Z,2680.00
2023-02-04T12:20:09.636Z,2776.00
2023-02-04T12:21:09.619Z,2936.00
2023-02-04T12:22:09.603Z,3140.00
2023-02-04T12:23:09.595Z,3284.00
2023-02-04T12:24:09.587Z,3268.00
2023-02-04T12:25:09.592Z,3332.00
2023-02-04T12:26:09.560Z,3516.00
2023-02-04T12:27:09.554Z,3672.00
2023-02-04T12:28:09.651Z,3744.00
2023-02-04T12:29:09.535Z,3772.00
2023-02-04T12:30:09.539Z,3760.00
2023-02-04T12:31:09.766Z,3744.00
2023-02-04T12:32:09.565Z,3796.00
2023-02-04T12:33:09.486Z,3824.00
2023-02-04T12:34:09.473Z,3932.00
2023-02-04T12:35:09.478Z,3944.00
2023-02-04T12:36:09.436Z,3940.00
2023-02-04T12:37:09.430Z,3980.00
2023-02-04T12:38:09.433Z,3908.00
2023-02-04T12:39:09.413Z,3828.00
2023-02-04T12:40:09.399Z,3832.00
2023-02-04T12:41:09.393Z,3840.00
2023-02-04T12:42:09.381Z,3900.00
2023-02-04T12:43:09.370Z,4004.00
2023-02-04T12:44:09.371Z,4028.00
2023-02-04T12:45:09.347Z,4012.00
2023-02-04T12:46:09.365Z,3940.00
2023-02-04T12:47:09.326Z,3948.00
2023-02-04T12:48:09.345Z,3968.00
2023-02-04T12:49:09.776Z,4028.00
2023-02-04T12:50:09.306Z,4088.00
2023-02-04T12:51:09.278Z,4084.00
2023-02-04T12:52:09.247Z,4080.00
2023-02-04T12:53:09.256Z,4116.00
2023-02-04T12:54:09.226Z,4112.00
2023-02-04T12:55:09.240Z,4128.00
2023-02-04T12:56:09.203Z,4180.00
2023-02-04T12:57:09.197Z,4192.00
2023-02-04T12:58:09.193Z,4144.00
2023-02-04T12:59:09.198Z,4060.00
2023-02-04T13:00:09.210Z,3964.00
2023-02-04T13:01:09.213Z,3856.00
2023-02-04T13:02:09.229Z,3812.00
2023-02-04T13:03:09.141Z,3768.00
2023-02-04T13:04:09.129Z,3740.00
2023-02-04T13:05:09.103Z,3736.00
2023-02-04T13:06:09.122Z,3808.00
2023-02-04T13:07:09.115Z,3900.00
2023-02-04T13:08:09.080Z,3928.00
2023-02-04T13:09:09.073Z,4060.00
2023-02-04T13:10:09.060Z,4160.00
2023-02-04T13:11:09.046Z,4268.00
2023-02-04T13:12:09.050Z,4408.00
2023-02-04T13:13:09.028Z,4412.00
2023-02-04T13:14:09.015Z,4360.00
2023-02-04T13:15:09.002Z,4200.00
2023-02-04T13:16:09.029Z,4052.00
2023-02-04T13:17:08.998Z,3900.00
2023-02-04T13:18:08.962Z,3768.00
2023-02-04T13:19:08.945Z,3784.00
2023-02-04T13:20:08.930Z,3864.00
2023-02-04T13:21:08.921Z,3796.00
2023-02-04T13:22:08.918Z,3668.00
2023-02-04T13:23:08.930Z,3596.00
2023-02-04T13:24:08.895Z,3576.00
2023-02-04T13:25:08.876Z,3532.00
2023-02-04T13:26:08.878Z,3576.00
2023-02-04T13:27:08.854Z,3540.00
2023-02-04T13:28:08.924Z,3428.00
2023-02-04T13:29:08.846Z,3464.00
2023-02-04T13:30:08.814Z,3520.00
2023-02-04T13:31:08.910Z,3544.00
2023-02-04T13:32:08.818Z,3540.00
2023-02-04T13:33:08.802Z,3388.00
2023-02-04T13:34:08.800Z,3308.00
2023-02-04T13:35:08.768Z,3356.00
2023-02-04T13:36:08.750Z,3360.00
2023-02-04T13:37:08.739Z,3372.00
2023-02-04T13:38:08.738Z,3340.00
2023-02-04T13:39:08.726Z,3548.00
2023-02-04T13:40:08.738Z,3752.00
2023-02-04T13:41:08.697Z,3744.00
2023-02-04T13:42:08.695Z,3952.00
2023-02-04T13:43:08.707Z,4268.00
2023-02-04T13:44:08.673Z,5260.00
2023-02-04T13:45:08.680Z,5980.00
2023-02-04T13:46:08.688Z,3548.00
2023-02-04T13:47:08.629Z,3252.00
2023-02-04T13:48:08.664Z,3268.00
2023-02-04T13:49:08.622Z,2708.00
2023-02-04T13:50:08.632Z,2560.00
2023-02-04T13:51:08.599Z,2448.00
2023-02-04T13:52:08.583Z,2364.00
2023-02-04T13:53:08.568Z,2344.00
2023-02-04T13:54:08.553Z,2328.00
2023-02-04T13:55:08.552Z,2304.00
2023-02-04T13:56:08.541Z,2272.00
2023-02-04T13:57:08.524Z,3372.00
2023-02-04T13:58:08.504Z,2712.00
2023-02-04T13:59:08.498Z,2132.00
2023-02-04T14:00:08.569Z,1920.00
2023-02-04T14:01:08.565Z,1744.00
2023-02-04T14:02:08.519Z,1736.00
2023-02-04T14:03:08.468Z,1728.00
2023-02-04T14:04:08.473Z,1736.00
2023-02-04T14:05:08.446Z,1700.00
2023-02-04T14:06:08.433Z,1708.00
2023-02-04T14:07:08.424Z,1728.00
2023-02-04T14:08:08.389Z,1688.00
2023-02-04T14:09:08.386Z,1680.00
2023-02-04T14:10:08.482Z,1696.00
2023-02-04T14:11:08.359Z,2248.00
2023-02-04T14:12:08.370Z,1664.00
2023-02-04T14:13:08.340Z,1832.00
2023-02-04T14:14:08.320Z,1540.00
2023-02-04T14:15:08.332Z,1632.00
2023-02-04T14:16:08.365Z,1656.00
2023-02-04T14:17:08.308Z,1616.00
2023-02-04T14:18:08.287Z,1524.00
2023-02-04T14:19:08.278Z,1360.00
2023-02-04T14:20:08.352Z,1320.00
2023-02-04T14:21:08.261Z,2640.00
2023-02-04T14:22:08.225Z,2832.00
2023-02-04T14:23:08.232Z,2948.00
2023-02-04T14:24:08.210Z,2924.00
2023-02-04T14:25:08.214Z,2640.00
2023-02-04T14:26:08.199Z,1468.00
2023-02-04T14:27:08.185Z,1864.00
2023-02-04T14:28:08.227Z,1264.00
2023-02-04T14:29:09.078Z,1312.00
2023-02-04T14:30:08.144Z,1272.00
2023-02-04T14:31:08.168Z,1224.00
2023-02-04T14:32:08.146Z,1176.00
2023-02-04T14:33:08.106Z,1228.00
2023-02-04T14:34:08.102Z,1224.00
2023-02-04T14:35:08.096Z,1228.00
2023-02-04T14:36:08.081Z,1160.00
2023-02-04T14:37:08.079Z,1104.00
2023-02-04T14:38:08.043Z,1064.00
2023-02-04T14:39:08.055Z,1064.00
2023-02-04T14:40:08.022Z,1028.00
2023-02-04T14:41:08.018Z,988.00
2023-02-04T14:42:08.009Z,980.00
2023-02-04T14:43:07.991Z,988.00
2023-02-04T14:44:08.008Z,1032.00
2023-02-04T14:45:07.968Z,1096.00
2023-02-04T14:46:08.017Z,1148.00
2023-02-04T14:47:07.959Z,1172.00
2023-02-04T14:48:07.940Z,1172.00
2023-02-04T14:49:07.943Z,1156.00
2023-02-04T14:50:07.939Z,1132.00
2023-02-04T14:51:07.905Z,1212.00
2023-02-04T14:52:09.730Z,1132.00
2023-02-04T14:53:07.881Z,1104.00
2023-02-04T14:54:07.865Z,1080.00
2023-02-04T14:55:07.893Z,1012.00
2023-02-04T14:56:07.855Z,1016.00
2023-02-04T14:57:07.849Z,972.00
2023-02-04T14:58:07.852Z,928.00
2023-02-04T14:59:07.828Z,916.00
2023-02-04T15:00:07.807Z,928.00
2023-02-04T15:01:07.819Z,952.00
2023-02-04T15:02:07.833Z,960.00
2023-02-04T15:03:07.784Z,956.00
2023-02-04T15:04:07.752Z,904.00
2023-02-04T15:05:07.758Z,796.00
2023-02-04T15:06:07.751Z,728.00
2023-02-04T15:07:07.736Z,716.00
2023-02-04T15:08:07.736Z,712.00
2023-02-04T15:09:07.702Z,736.00
2023-02-04T15:10:07.702Z,740.00
2023-02-04T15:11:07.690Z,704.00
2023-02-04T15:12:07.689Z,696.00
2023-02-04T15:13:07.667Z,708.00
2023-02-04T15:14:07.656Z,712.00
2023-02-04T15:15:07.643Z,700.00
2023-02-04T15:16:07.629Z,692.00
2023-02-04T15:17:07.638Z,708.00
2023-02-04T15:18:07.598Z,724.00
2023-02-04T15:19:07.599Z,736.00
2023-02-04T15:20:07.596Z,740.00
2023-02-04T15:21:07.564Z,724.00
2023-02-04T15:22:07.547Z,704.00
2023-02-04T15:23:07.562Z,684.00
2023-02-04T15:24:07.541Z,676.00
2023-02-04T15:25:07.521Z,676.00
2023-02-04T15:26:07.501Z,664.00
2023-02-04T15:27:07.502Z,640.00
2023-02-04T15:28:07.577Z,612.00
2023-02-04T15:29:07.474Z,576.00
2023-02-04T15:30:07.456Z,556.00
2023-02-04T15:31:07.592Z,560.00
2023-02-04T15:32:07.444Z,572.00
2023-02-04T15:33:07.423Z,568.00
2023-02-04T15:34:07.426Z,568.00
2023-02-04T15:35:07.399Z,560.00
2023-02-04T15:36:07.383Z,568.00
2023-02-04T15:37:07.379Z,572.00
2023-02-04T15:38:07.396Z,576.00
2023-02-04T15:39:07.383Z,564.00
2023-02-04T15:40:07.372Z,536.00
2023-02-04T15:41:07.333Z,512.00
2023-02-04T15:42:07.315Z,500.00
2023-02-04T15:43:07.307Z,492.00
2023-02-04T15:44:07.305Z,476.00
2023-02-04T15:45:07.312Z,460.00
2023-02-04T15:46:07.372Z,448.00
2023-02-04T15:47:07.266Z,436.00
2023-02-04T15:48:07.287Z,424.00
2023-02-04T15:49:07.253Z,412.00
2023-02-04T15:50:07.255Z,396.00
2023-02-04T15:51:07.227Z,392.00
2023-02-04T15:52:13.461Z,388.00
2023-02-04T15:53:08.191Z,376.00
2023-02-04T15:54:07.182Z,368.00
2023-02-04T15:55:07.208Z,348.00
2023-02-04T15:56:07.213Z,328.00
2023-02-04T15:57:07.164Z,336.00
2023-02-04T15:58:07.137Z,344.00
2023-02-04T15:59:07.167Z,336.00
2023-02-04T16:00:07.113Z,344.00
2023-02-04T16:01:07.186Z,348.00
2023-02-04T16:02:07.108Z,340.00
2023-02-04T16:03:07.097Z,332.00
2023-02-04T16:04:07.073Z,324.00
2023-02-04T16:05:07.070Z,312.00
2023-02-04T16:06:07.081Z,304.00
2023-02-04T16:07:07.041Z,288.00
2023-02-04T16:08:07.047Z,276.00
2023-02-04T16:09:07.029Z,260.00
2023-02-04T16:10:07.023Z,240.00
2023-02-04T16:11:07.025Z,232.00
2023-02-04T16:12:07.021Z,224.00
2023-02-04T16:13:06.993Z,216.00
2023-02-04T16:14:06.957Z,204.00
2023-02-04T16:15:06.967Z,196.00
2023-02-04T16:16:07.012Z,180.00
2023-02-04T16:17:07.000Z,164.00
2023-02-04T16:18:06.917Z,152.00
2023-02-04T16:19:06.910Z,144.00
2023-02-04T16:20:06.909Z,132.00
2023-02-04T16:21:06.904Z,124.00
2023-02-04T16:22:06.868Z,116.00
2023-02-04T16:23:06.876Z,112.00
2023-02-04T16:24:06.861Z,100.00
2023-02-04T16:25:06.837Z,96.00
2023-02-04T16:26:06.938Z,88.00
2023-02-04T16:27:06.826Z,80.00
2023-02-04T16:28:06.908Z,68.00
2023-02-04T16:29:06.789Z,64.00
2023-02-04T16:30:06.826Z,56.00
2023-02-04T16:31:06.921Z,52.00
2023-02-04T16:32:06.805Z,48.00
2023-02-04T16:33:06.753Z,40.00
2023-02-04T16:34:06.746Z,36.00
2023-02-04T16:35:06.720Z,32.00
2023-02-04T16:36:06.715Z,32.00
2023-02-04T16:37:06.733Z,24.00
2023-02-04T16:38:06.693Z,24.00
2023-02-04T16:39:06.685Z,20.00
2023-02-04T16:40:06.678Z,16.00
2023-02-04T16:41:06.646Z,16.00
2023-02-04T16:42:06.673Z,12.00
2023-02-04T16:43:06.647Z,12.00
2023-02-04T16:44:06.650Z,8.00
2023-02-04T16:45:06.612Z,12.00
2023-02-04T16:46:06.651Z,8.00
2023-02-04T16:47:06.608Z,8.00
2023-02-04T16:48:06.581Z,8.00
2023-02-04T16:49:06.567Z,4.00
2023-02-04T16:50:06.577Z,4.00
2023-02-04T16:51:06.528Z,4.00
2023-02-04T16:52:06.561Z,4.00
2023-02-04T16:53:06.520Z,4.00
2023-02-04T16:54:06.497Z,4.00
2023-02-04T16:55:06.485Z,4.00
2023-02-04T16:56:06.506Z,4.00
2023-02-04T16:57:06.498Z,0.00
2023-02-04T16:58:06.467Z,0.00
2023-02-04T16:59:06.454Z,4.00
2023-02-04T17:00:06.491Z,4.00
2023-02-04T17:01:06.430Z,0.00
2023-02-04T17:02:06.513Z,0.00
2023-02-04T17:03:06.438Z,0.00
2023-02-04T17:04:06.390Z,0.00
2023-02-04T17:05:06.371Z,0.00
2023-02-04T17:06:06.375Z,0.00
2023-02-04T17:07:06.392Z,0.00
2023-02-04T17:08:06.340Z,0.00
2023-02-04T17:09:06.348Z,0.00
2023-02-04T17:10:06.323Z,0.00
2023-02-04T17:11:06.323Z,0.00
2023-02-04T17:12:06.325Z,0.00
2023-02-04T17:13:06.302Z,0.00
2023-02-04T17:14:06.300Z,0.00
2023-02-04T17:15:06.273Z,0.00
2023-02-04T17:16:06.336Z,0.00
2023-02-04T17:17:06.247Z,0.00
2023-02-04T17:18:06.225Z,0.00
2023-02-04T17:19:06.216Z,0.00
2023-02-04T17:20:06.203Z,0.00
2023-02-04T17:21:06.203Z,0.00
2023-02-04T17:22:06.224Z,0.00
2023-02-04T17:23:06.183Z,0.00
2023-02-04T17:24:06.165Z,0.00
2023-02-04T17:25:06.144Z,0.00
2023-02-04T17:26:06.148Z,0.00
2023-02-04T17:27:06.136Z,0.00
2023-02-04T17:28:06.306Z,0.00
2023-02-04T17:29:06.112Z,0.00
2023-02-04T17:30:06.106Z,0.00
2023-02-04T17:31:06.244Z,0.00
2023-02-04T17:32:06.107Z,0.00
2023-02-04T17:33:06.053Z,0.00
2023-02-04T17:34:06.083Z,0.00
2023-02-04T17:35:06.043Z,0.00
2023-02-04T17:36:06.035Z,0.00
2023-02-04T17:37:06.036Z,0.00
2023-02-04T17:38:06.006Z,0.00
2023-02-04T17:39:06.022Z,0.00
2023-02-04T17:40:05.977Z,0.00
2023-02-04T17:41:05.969Z,0.00
2023-02-04T17:42:05.989Z,0.00
2023-02-04T17:43:05.953Z,0.00
2023-02-04T17:44:05.932Z,0.00
2023-02-04T17:45:05.917Z,0.00
2023-02-04T17:46:05.925Z,0.00
2023-02-04T17:47:06.107Z,0.00
2023-02-04T17:48:05.925Z,0.00
2023-02-04T17:49:05.873Z,0.00
2023-02-04T17:50:05.877Z,0.00
2023-02-04T17:51:05.850Z,0.00
2023-02-04T17:52:05.859Z,0.00
2023-02-04T17:53:05.840Z,0.00
2023-02-04T17:54:05.821Z,0.00
2023-02-04T17:55:05.827Z,0.00
2023-02-04T17:56:05.814Z,0.00
2023-02-04T17:57:05.808Z,0.00
2023-02-04T17:58:05.782Z,0.00
2023-02-04T17:59:05.775Z,0.00
2023-02-04T18:00:05.752Z,0.00
2023-02-04T18:01:05.866Z,0.00
2023-02-04T18:02:05.940Z,0.00
2023-02-04T18:03:05.728Z,0.00
2023-02-04T18:04:05.728Z,0.00
2023-02-04T18:05:05.705Z,0.00
2023-02-04T18:06:05.708Z,0.00
2023-02-04T18:07:05.698Z,0.00
2023-02-04T18:08:05.661Z,0.00
2023-02-04T18:09:05.645Z,0.00
2023-02-04T18:10:06.142Z,0.00
2023-02-04T18:11:05.624Z,0.00
2023-02-04T18:12:05.635Z,0.00
2023-02-04T18:13:05.608Z,0.00
2023-02-04T18:14:05.615Z,0.00
2023-02-04T18:15:05.578Z,0.00
2023-02-04T18:16:05.617Z,0.00
2023-02-04T18:17:08.340Z,0.00
2023-02-04T18:18:05.556Z,0.00
2023-02-04T18:19:05.560Z,0.00
2023-02-04T18:20:05.545Z,0.00
2023-02-04T18:21:05.511Z,0.00
2023-02-04T18:22:05.526Z,0.00
2023-02-04T18:23:05.508Z,0.00
2023-02-04T18:24:05.496Z,0.00
2023-02-04T18:25:05.462Z,0.00
2023-02-04T18:26:05.458Z,0.00
2023-02-04T18:27:05.478Z,0.00
2023-02-04T18:28:05.470Z,0.00
2023-02-04T18:29:05.451Z,0.00
2023-02-04T18:30:05.409Z,0.00
2023-02-04T18:31:05.434Z,0.00
2023-02-04T18:32:05.399Z,0.00
2023-02-04T18:33:05.396Z,0.00
2023-02-04T18:34:05.360Z,0.00
2023-02-04T18:35:05.360Z,0.00
2023-02-04T18:36:05.370Z,0.00
2023-02-04T18:37:05.347Z,0.00
2023-02-04T18:38:05.327Z,0.00
2023-02-04T18:39:05.308Z,0.00
2023-02-04T18:40:05.304Z,0.00
2023-02-04T18:41:05.274Z,0.00
2023-02-04T18:42:05.273Z,0.00
2023-02-04T18:43:05.278Z,0.00
2023-02-04T18:44:05.249Z,0.00
2023-02-04T18:45:05.226Z,0.00
2023-02-04T18:46:05.295Z,0.00
2023-02-04T18:47:05.204Z,0.00
2023-02-04T18:48:05.212Z,0.00
2023-02-04T18:49:05.181Z,0.00
2023-02-04T18:50:05.185Z,0.00
2023-02-04T18:51:05.182Z,0.00
2023-02-04T18:52:06.582Z,0.00
2023-02-04T18:53:05.155Z,0.00
2023-02-04T18:54:05.128Z,0.00
2023-02-04T18:55:05.144Z,0.00
2023-02-04T18:56:05.117Z,0.00
2023-02-04T18:57:05.088Z,0.00
2023-02-04T18:58:05.125Z,0.00
2023-02-04T18:59:05.078Z,0.00
2023-02-04T19:00:05.060Z,0.00
2023-02-04T19:01:05.139Z,0.00
2023-02-04T19:02:05.080Z,0.00
2023-02-04T19:03:05.035Z,0.00
2023-02-04T19:04:05.012Z,0.00
2023-02-04T19:05:13.072Z,0.00
2023-02-04T19:06:05.994Z,0.00
2023-02-04T19:07:04.990Z,0.00
2023-02-04T19:08:05.005Z,0.00
2023-02-04T19:09:04.957Z,0.00
2023-02-04T19:10:04.950Z,0.00
2023-02-04T19:11:04.943Z,0.00
2023-02-04T19:12:04.937Z,0.00
2023-02-04T19:13:04.952Z,0.00
2023-02-04T19:14:04.912Z,0.00
2023-02-04T19:15:04.936Z,0.00
2023-02-04T19:16:04.895Z,0.00
2023-02-04T19:17:04.873Z,0.00
2023-02-04T19:18:04.851Z,0.00
2023-02-04T19:19:04.850Z,0.00
2023-02-04T19:20:04.830Z,0.00
2023-02-04T19:21:04.826Z,0.00
2023-02-04T19:22:04.822Z,0.00
2023-02-04T19:23:04.811Z,0.00
2023-02-04T19:24:04.847Z,0.00
2023-02-04T19:25:04.773Z,0.00
2023-02-04T19:26:04.764Z,0.00
2023-02-04T19:27:04.742Z,0.00
2023-02-04T19:28:04.782Z,0.00
2023-02-04T19:29:04.927Z,0.00
2023-02-04T19:30:04.713Z,0.00
2023-02-04T19:31:04.698Z,0.00
2023-02-04T19:32:04.699Z,0.00
2023-02-04T19:33:04.686Z,0.00
2023-02-04T19:34:04.729Z,0.00
2023-02-04T19:35:04.673Z,0.00
2023-02-04T19:36:04.656Z,0.00
2023-02-04T19:37:04.649Z,0.00
2023-02-04T19:38:04.643Z,0.00
2023-02-04T19:39:04.621Z,0.00
2023-02-04T19:40:04.646Z,0.00
2023-02-04T19:41:04.592Z,0.00
2023-02-04T19:42:04.584Z,0.00
2023-02-04T19:43:04.569Z,0.00
2023-02-04T19:44:04.558Z,0.00
2023-02-04T19:45:04.574Z,0.00
2023-02-04T19:46:04.597Z,0.00
2023-02-04T19:47:04.541Z,0.00
2023-02-04T19:48:04.517Z,0.00
2023-02-04T19:49:04.515Z,0.00
2023-02-04T19:50:04.551Z,0.00
2023-02-04T19:51:04.476Z,0.00
2023-02-04T19:52:04.486Z,0.00
2023-02-04T19:53:04.466Z,0.00
2023-02-04T19:54:04.460Z,0.00
2023-02-04T19:55:04.454Z,0.00
2023-02-04T19:56:04.446Z,0.00
2023-02-04T19:57:04.411Z,0.00
2023-02-04T19:58:04.402Z,0.00
2023-02-04T19:59:04.387Z,0.00
2023-02-04T20:00:04.396Z,0.00
2023-02-04T20:01:04.452Z,0.00
2023-02-04T20:02:04.428Z,0.00
2023-02-04T20:03:04.370Z,0.00
2023-02-04T20:04:04.349Z,0.00
2023-02-04T20:05:04.357Z,0.00
2023-02-04T20:06:04.339Z,0.00
2023-02-04T20:07:04.298Z,0.00
2023-02-04T20:08:04.304Z,0.00